Gorham, Maine
Current Conditions -  °F | °C
As of 2:51 AM on Saturday 25 Oct 2014 (Local Time) from KPWM Reporting Station
Broken Clouds Broken Clouds  
Wind Chill: 46°   Ceiling: 6500
Heat Index: 49°   Visibility: 10mi
Dew Point: 41°   Wind: 7mph
Humidity: 74%   Direction: 260°W
Pressure: 29.71"   Gusts: NA
Location:  43.68°N, 70.45°W
Report Text: KPWM 250651Z AUTO 26006KT 10SM BKN065 09/05 A2971 RMK AO2 SLP059 T00940050
Loading
Personal Weather Stations






























Interactive Weather Map
Tropical Storm Tracking
New forecast layout! Learn more

10-Day Weather Forecast

Advertisements
Track Severe Weather on mobile